Time;durP1;ratioP1;P1;durP2;ratioP2;P2;SDS_P1;SDS_P2;PMS_P1;PMS_P2;Temp;Humidity;BMP_temperature;BMP_pressure;BME280_temperature;BME280_humidity;BME280_pressure;Samples;Min_cycle;Max_cycle;Signal;HPM_P1;HPM_P2
2021/06/12 00:01:23;;;;;;;5.28;4.72;;;20.70;76.20;;;;;;3546793;40;20038;-69
2021/06/12 00:03:49;;;;;;;6.50;5.22;;;20.70;76.60;;;;;;3545398;40;20690;-68
2021/06/12 00:06:15;;;;;;;5.75;5.25;;;20.70;77.10;;;;;;3544399;40;20057;-69
2021/06/12 00:08:40;;;;;;;7.03;6.32;;;20.70;77.20;;;;;;3542578;40;20035;-69
2021/06/12 00:11:07;;;;;;;6.53;5.93;;;20.70;77.70;;;;;;3541841;40;20041;-69
2021/06/12 00:13:32;;;;;;;10.48;7.00;;;20.70;78.50;;;;;;3540934;40;20031;-69
2021/06/12 00:15:59;;;;;;;9.88;7.70;;;20.70;78.90;;;;;;3542083;40;20876;-69
2021/06/12 00:18:25;;;;;;;9.15;8.25;;;20.70;79.60;;;;;;3550223;40;20037;-69
2021/06/12 00:20:54;;;;;;;11.05;9.15;;;20.70;79.90;;;;;;3551366;40;20792;-69
2021/06/12 00:23:20;;;;;;;10.25;9.20;;;20.70;80.00;;;;;;3546292;40;20036;-69
2021/06/12 00:25:46;;;;;;;12.77;9.25;;;20.70;80.00;;;;;;3547078;40;20045;-69
2021/06/12 00:28:12;;;;;;;11.70;8.93;;;20.80;80.00;;;;;;3541620;40;20037;-68
2021/06/12 00:30:38;;;;;;;11.65;8.90;;;20.80;80.00;;;;;;3540966;40;20030;-69
2021/06/12 00:33:04;;;;;;;12.75;8.82;;;20.80;79.80;;;;;;3546130;40;20420;-69
2021/06/12 00:35:29;;;;;;;8.65;7.75;;;20.80;79.70;;;;;;3548572;40;20400;-69
2021/06/12 00:37:55;;;;;;;10.07;7.18;;;20.80;79.20;;;;;;3546783;40;20105;-69
2021/06/12 00:40:22;;;;;;;10.25;7.45;;;20.70;78.20;;;;;;3545471;40;20119;-69
2021/06/12 00:42:48;;;;;;;10.82;7.72;;;20.70;77.90;;;;;;3550754;40;20061;-69
2021/06/12 00:45:18;;;;;;;8.98;7.45;;;20.70;77.60;;;;;;3542792;40;20030;-69
2021/06/12 00:47:45;;;;;;;8.32;6.97;;;20.80;77.20;;;;;;3542154;40;20023;-69
2021/06/12 00:50:12;;;;;;;7.57;6.72;;;20.70;76.90;;;;;;3539349;40;20045;-69
2021/06/12 00:52:38;;;;;;;7.95;6.85;;;20.70;76.20;;;;;;3541182;40;20064;-69
2021/06/12 00:55:09;;;;;;;9.07;7.03;;;20.70;76.20;;;;;;3548141;40;20037;-68
2021/06/12 00:57:36;;;;;;;7.93;7.13;;;20.60;76.10;;;;;;3546505;40;20022;-68
2021/06/12 01:00:04;;;;;;;13.90;7.22;;;20.60;76.00;;;;;;3544489;40;20038;-69
2021/06/12 01:02:30;;;;;;;8.27;7.38;;;20.60;75.90;;;;;;3543686;40;20026;-69
2021/06/12 01:04:57;;;;;;;7.95;7.07;;;20.50;76.40;;;;;;3549271;40;20108;-69
2021/06/12 01:07:22;;;;;;;7.47;6.68;;;20.50;76.00;;;;;;3540584;40;20038;-69
2021/06/12 01:09:48;;;;;;;7.78;7.05;;;20.50;76.10;;;;;;3540818;40;20042;-69
2021/06/12 01:12:28;;;;;;;9.20;7.03;;;20.60;76.10;;;;;;3542382;40;20342;-69
2021/06/12 01:15:01;;;;;;;7.63;6.50;;;20.50;76.20;;;;;;3542900;40;20050;-69
2021/06/12 01:17:54;;;;;;;9.02;6.57;;;20.60;76.20;;;;;;3544279;40;20101;-69
2021/06/12 01:20:43;;;;;;;7.70;6.88;;;20.60;76.10;;;;;;3546530;40;20039;-69
2021/06/12 01:23:12;;;;;;;8.57;6.55;;;20.50;76.10;;;;;;3554696;40;20086;-69
2021/06/12 01:25:48;;;;;;;8.32;6.70;;;20.50;76.40;;;;;;3549697;40;20451;-69
2021/06/12 01:28:36;;;;;;;7.78;6.97;;;20.50;76.30;;;;;;3549144;40;20042;-69
2021/06/12 01:31:03;;;;;;;7.90;6.95;;;20.60;76.20;;;;;;3548294;40;20042;-69
2021/06/12 01:33:29;;;;;;;7.97;6.72;;;20.60;76.10;;;;;;3546694;40;20059;-69
2021/06/12 01:36:03;;;;;;;8.30;7.05;;;20.60;75.80;;;;;;3545570;40;20061;-71
2021/06/12 01:38:34;;;;;;;7.20;6.50;;;20.60;75.70;;;;;;3544317;40;20119;-71
2021/06/12 01:41:06;;;;;;;9.30;7.78;;;20.70;75.50;;;;;;3542536;40;20042;-71
2021/06/12 01:43:34;;;;;;;7.18;6.47;;;20.70;75.30;;;;;;3549210;40;20046;-71
2021/06/12 01:46:01;;;;;;;6.90;6.20;;;20.60;75.30;;;;;;3538963;40;20046;-71
2021/06/12 01:48:28;;;;;;;7.10;6.40;;;20.70;76.00;;;;;;3549834;40;20038;-70
2021/06/12 01:50:57;;;;;;;7.93;6.30;;;20.80;75.20;;;;;;3545945;40;20123;-70
2021/06/12 01:53:30;;;;;;;7.18;6.47;;;20.80;74.90;;;;;;3543444;40;20038;-71
2021/06/12 01:56:00;;;;;;;7.70;6.55;;;20.80;74.80;;;;;;3547388;40;20315;-70
2021/06/12 01:58:27;;;;;;;6.70;6.03;;;20.80;74.80;;;;;;3555134;40;20077;-71
2021/06/12 02:00:54;;;;;;;8.38;6.93;;;20.80;74.60;;;;;;3549495;40;20038;-71
2021/06/12 02:03:20;;;;;;;6.60;6.00;;;20.80;74.40;;;;;;3550336;40;20081;-71
2021/06/12 02:05:48;;;;;;;7.22;6.50;;;20.80;74.70;;;;;;3549910;40;20060;-70
2021/06/12 02:08:15;;;;;;;6.90;6.20;;;20.80;74.60;;;;;;3544191;40;20023;-71
2021/06/12 02:10:42;;;;;;;6.80;6.20;;;20.80;74.60;;;;;;3544982;40;20124;-70
2021/06/12 02:13:09;;;;;;;8.32;6.75;;;20.80;74.30;;;;;;3546498;40;20413;-71
2021/06/12 02:15:36;;;;;;;7.47;6.38;;;20.80;74.50;;;;;;3546062;40;20037;-71
2021/06/12 02:18:06;;;;;;;7.13;6.28;;;20.70;74.40;;;;;;3555839;40;20116;-71
2021/06/12 02:20:34;;;;;;;7.40;6.07;;;20.70;74.50;;;;;;3544091;40;20033;-70
2021/06/12 02:23:03;;;;;;;7.90;5.97;;;20.70;74.50;;;;;;3557580;40;20038;-71
2021/06/12 02:25:28;;;;;;;6.93;6.20;;;20.70;74.40;;;;;;3549755;40;20034;-71
2021/06/12 02:27:58;;;;;;;6.97;5.90;;;20.70;74.60;;;;;;3549849;40;20105;-71
2021/06/12 02:30:29;;;;;;;8.48;5.82;;;20.70;74.90;;;;;;3545698;40;20026;-71
2021/06/12 02:33:04;;;;;;;6.50;5.88;;;20.60;75.10;;;;;;3547035;40;20030;-71
2021/06/12 02:35:30;;;;;;;;;;;20.60;75.20;;;;;;3544156;40;20042;-71
2021/06/12 02:37:57;;;;;;;7.38;5.82;;;20.60;75.00;;;;;;3542888;40;19937;-71
2021/06/12 02:40:23;;;;;;;6.30;5.70;;;20.60;75.10;;;;;;3541241;40;20034;-71
2021/06/12 02:42:48;;;;;;;7.30;5.85;;;20.50;75.10;;;;;;3544788;40;20041;-70
2021/06/12 02:45:14;;;;;;;6.28;5.65;;;20.40;75.50;;;;;;3544568;40;20026;-71
2021/06/12 02:48:14;;;;;;;7.68;6.13;;;20.40;75.90;;;;;;3546468;40;20038;-71
2021/06/12 02:50:42;;;;;;;6.45;5.80;;;20.30;75.90;;;;;;3530844;40;20140;-70
2021/06/12 02:53:09;;;;;;;6.88;6.13;;;20.30;76.10;;;;;;3542001;40;20817;-71
2021/06/12 02:55:41;;;;;;;7.15;5.90;;;20.30;76.20;;;;;;3544516;40;20035;-71
2021/06/12 02:58:09;;;;;;;6.72;5.80;;;20.30;76.20;;;;;;3541766;40;20475;-71
2021/06/12 03:00:36;;;;;;;7.22;6.15;;;20.30;76.20;;;;;;3547872;40;20039;-71
2021/06/12 03:03:03;;;;;;;6.40;5.80;;;20.30;76.50;;;;;;3543004;40;20049;-70
2021/06/12 03:05:38;;;;;;;7.38;5.85;;;20.30;76.60;;;;;;3543733;40;20074;-71
2021/06/12 03:08:05;;;;;;;8.35;5.53;;;20.20;76.50;;;;;;3545309;40;20128;-71
2021/06/12 03:10:35;;;;;;;6.53;5.78;;;20.20;76.50;;;;;;3545208;40;20042;-71
2021/06/12 03:13:04;;;;;;;6.30;5.70;;;20.30;76.60;;;;;;3548524;40;20090;-71
2021/06/12 03:15:33;;;;;;;5.70;5.13;;;20.20;76.40;;;;;;3548092;40;20046;-71
2021/06/12 03:18:00;;;;;;;6.70;5.72;;;20.20;76.40;;;;;;3543591;40;20420;-70
2021/06/12 03:20:26;;;;;;;5.70;5.13;;;20.20;76.60;;;;;;3547901;40;20162;-71
2021/06/12 03:22:53;;;;;;;6.18;5.50;;;20.20;76.50;;;;;;3544068;40;20817;-71
2021/06/12 03:25:23;;;;;;;6.30;5.70;;;20.20;76.60;;;;;;3545386;40;20018;-70
2021/06/12 03:27:50;;;;;;;5.53;5.00;;;20.20;76.50;;;;;;3546470;40;20042;-71
2021/06/12 03:30:17;;;;;;;7.00;5.53;;;20.20;76.60;;;;;;3548100;40;20034;-70
2021/06/12 03:32:43;;;;;;;5.55;5.05;;;20.20;76.60;;;;;;3556323;40;20030;-70
2021/06/12 03:35:10;;;;;;;5.53;5.03;;;20.30;76.60;;;;;;3544218;40;20042;-71
2021/06/12 03:37:38;;;;;;;5.82;5.32;;;20.20;76.60;;;;;;3548873;40;20865;-70
2021/06/12 03:40:04;;;;;;;6.20;5.50;;;20.30;76.70;;;;;;3544347;40;20038;-70
2021/06/12 03:42:30;;;;;;;6.03;5.38;;;20.30;76.70;;;;;;3544671;40;20455;-71
2021/06/12 03:44:58;;;;;;;5.55;5.05;;;20.30;76.60;;;;;;3545763;40;20192;-71
2021/06/12 03:47:25;;;;;;;5.50;4.97;;;20.30;76.60;;;;;;3547693;40;20042;-71
2021/06/12 03:49:51;;;;;;;5.10;4.63;;;20.30;76.50;;;;;;3547951;40;20034;-71
2021/06/12 03:52:22;;;;;;;6.88;4.97;;;20.40;76.50;;;;;;3549583;40;20132;-71
2021/06/12 03:54:48;;;;;;;7.72;5.25;;;20.40;76.50;;;;;;3550853;40;20061;-69
2021/06/12 03:57:14;;;;;;;5.53;5.03;;;20.50;76.40;;;;;;3538473;40;20033;-71
2021/06/12 03:59:43;;;;;;;5.70;5.13;;;20.50;76.50;;;;;;3543982;40;20027;-72
2021/06/12 04:02:11;;;;;;;6.03;5.32;;;20.60;76.40;;;;;;3550945;40;20135;-69
2021/06/12 04:04:37;;;;;;;7.60;5.13;;;20.60;76.30;;;;;;3544781;40;20041;-69
2021/06/12 04:07:03;;;;;;;5.53;4.65;;;20.60;76.60;;;;;;3547474;40;20571;-69
2021/06/12 04:09:29;;;;;;;5.50;5.00;;;20.60;77.00;;;;;;3544126;40;20049;-69
2021/06/12 04:11:54;;;;;;;4.88;4.47;;;20.60;77.10;;;;;;3540619;40;20038;-70
2021/06/12 04:14:20;;;;;;;5.53;4.93;;;20.70;77.20;;;;;;3536179;40;20042;-68
2021/06/12 04:16:46;;;;;;;5.05;4.55;;;20.70;77.10;;;;;;3538349;40;20642;-68
2021/06/12 04:19:11;;;;;;;5.75;5.15;;;20.80;76.80;;;;;;3541208;40;20420;-68
2021/06/12 04:21:37;;;;;;;4.95;4.50;;;20.90;76.70;;;;;;3543878;40;20698;-67
2021/06/12 04:24:03;;;;;;;5.75;4.70;;;20.90;76.30;;;;;;3546722;40;20027;-68
2021/06/12 04:26:29;;;;;;;6.35;4.45;;;21.00;76.10;;;;;;3547880;40;20045;-68
2021/06/12 04:28:55;;;;;;;4.60;4.20;;;21.00;76.20;;;;;;3548722;40;20618;-68
2021/06/12 04:31:20;;;;;;;4.80;4.40;;;21.10;76.30;;;;;;3548863;40;20034;-69
2021/06/12 04:33:46;;;;;;;5.10;4.65;;;21.10;76.20;;;;;;3542843;40;20038;-68
2021/06/12 04:36:11;;;;;;;6.53;4.43;;;21.20;75.80;;;;;;3543597;40;20393;-69
2021/06/12 04:38:37;;;;;;;5.03;4.53;;;21.20;75.10;;;;;;3545480;40;20082;-69
2021/06/12 04:41:03;;;;;;;4.38;3.97;;;21.30;74.60;;;;;;3546392;40;20437;-69
2021/06/12 04:43:28;;;;;;;5.00;4.20;;;21.30;74.70;;;;;;3547204;40;20022;-68
2021/06/12 04:45:54;;;;;;;4.65;4.20;;;21.40;74.80;;;;;;3548538;40;20108;-67
2021/06/12 04:48:20;;;;;;;4.85;4.45;;;21.50;74.90;;;;;;3542470;40;20125;-67
2021/06/12 04:50:46;;;;;;;6.20;4.30;;;21.50;73.70;;;;;;3539428;40;20041;-68
2021/06/12 04:53:12;;;;;;;7.05;4.25;;;21.60;73.60;;;;;;3541236;40;20053;-66
2021/06/12 04:55:38;;;;;;;4.07;3.78;;;21.60;73.40;;;;;;3543722;40;20018;-68
2021/06/12 04:58:05;;;;;;;4.07;3.67;;;21.70;72.50;;;;;;3545667;40;20041;-68
2021/06/12 05:00:31;;;;;;;5.80;3.72;;;21.80;72.00;;;;;;3544177;40;20035;-68
2021/06/12 05:02:57;;;;;;;4.35;3.80;;;21.90;71.60;;;;;;3542945;40;20467;-67
2021/06/12 05:05:22;;;;;;;4.10;3.42;;;22.00;71.10;;;;;;3548176;40;20763;-68
2021/06/12 05:07:48;;;;;;;4.05;3.65;;;22.10;70.70;;;;;;3547610;40;20033;-68
2021/06/12 05:10:14;;;;;;;3.60;3.25;;;22.10;70.40;;;;;;3544298;40;20633;-68
2021/06/12 05:12:40;;;;;;;3.40;3.10;;;22.20;70.10;;;;;;3548179;40;20033;-68
2021/06/12 05:15:07;;;;;;;3.53;3.10;;;22.20;70.10;;;;;;3545739;40;20025;-68
2021/06/12 05:17:33;;;;;;;3.78;3.17;;;22.30;70.00;;;;;;3544811;40;20025;-68
2021/06/12 05:19:59;;;;;;;3.75;2.55;;;22.30;70.10;;;;;;3544963;40;20030;-67
2021/06/12 05:22:26;;;;;;;3.80;3.17;;;22.30;70.40;;;;;;3547432;40;20090;-66
2021/06/12 05:24:53;;;;;;;4.28;3.88;;;22.30;70.40;;;;;;3548095;40;20030;-68
2021/06/12 05:27:19;;;;;;;4.03;3.40;;;22.30;70.20;;;;;;3549429;40;20049;-66
2021/06/12 05:29:45;;;;;;;3.50;3.20;;;22.20;70.60;;;;;;3547631;40;20659;-68
2021/06/12 05:32:15;;;;;;;4.10;3.70;;;22.20;70.40;;;;;;3541431;40;20023;-68
2021/06/12 05:34:41;;;;;;;4.22;3.65;;;22.10;70.30;;;;;;3542658;40;20041;-68
2021/06/12 05:37:07;;;;;;;3.83;3.40;;;22.10;70.50;;;;;;3552063;40;20124;-68
2021/06/12 05:39:33;;;;;;;3.38;3.10;;;22.10;70.70;;;;;;3542358;40;20045;-68
2021/06/12 05:42:00;;;;;;;4.50;3.13;;;22.10;70.60;;;;;;3540411;40;20881;-69
2021/06/12 05:44:26;;;;;;;4.90;3.88;;;22.00;70.90;;;;;;3555264;40;20034;-68
2021/06/12 05:46:52;;;;;;;5.00;3.72;;;22.00;71.10;;;;;;3552032;40;20057;-68
2021/06/12 05:49:18;;;;;;;5.47;4.03;;;22.00;71.10;;;;;;3541337;40;20404;-68
2021/06/12 05:51:44;;;;;;;5.72;3.58;;;22.00;70.90;;;;;;3545049;40;20034;-67
2021/06/12 05:54:10;;;;;;;3.92;3.55;;;21.90;71.20;;;;;;3544986;40;20725;-67
2021/06/12 05:56:36;;;;;;;4.75;3.60;;;21.90;71.60;;;;;;3545519;40;20117;-67
2021/06/12 05:59:02;;;;;;;3.65;3.30;;;21.80;71.60;;;;;;3544870;40;20078;-68
2021/06/12 06:01:28;;;;;;;4.18;3.78;;;21.80;71.80;;;;;;3547640;40;20025;-67
2021/06/12 06:03:54;;;;;;;4.53;3.42;;;21.80;71.70;;;;;;3545676;40;20033;-68
2021/06/12 06:06:19;;;;;;;4.60;4.20;;;21.90;71.70;;;;;;3545220;40;20029;-68
2021/06/12 06:08:45;;;;;;;4.63;3.22;;;21.80;71.60;;;;;;3546199;40;20030;-68
2021/06/12 06:11:11;;;;;;;4.68;3.55;;;21.80;71.50;;;;;;3544672;40;20045;-68
2021/06/12 06:13:38;;;;;;;7.30;3.40;;;21.90;71.50;;;;;;3545954;40;20040;-68
2021/06/12 06:16:04;;;;;;;3.65;3.35;;;21.80;71.50;;;;;;3542522;40;20030;-67
2021/06/12 06:18:30;;;;;;;3.90;3.50;;;21.80;71.40;;;;;;3545241;40;20384;-67
2021/06/12 06:20:56;;;;;;;4.15;3.35;;;21.80;71.60;;;;;;3551251;40;20037;-67
2021/06/12 06:23:21;;;;;;;5.40;3.50;;;21.80;71.80;;;;;;3546065;40;20014;-68
2021/06/12 06:25:47;;;;;;;3.67;3.30;;;21.80;71.50;;;;;;3545189;40;20046;-67
2021/06/12 06:28:13;;;;;;;5.88;3.63;;;21.80;71.80;;;;;;3544296;40;20038;-68
2021/06/12 06:30:38;;;;;;;5.53;3.60;;;21.80;72.00;;;;;;3544575;40;20046;-67
2021/06/12 06:33:04;;;;;;;5.47;4.10;;;21.90;72.00;;;;;;3544522;40;20049;-68
2021/06/12 06:35:30;;;;;;;5.43;4.35;;;22.00;71.60;;;;;;3544311;40;20031;-67
2021/06/12 06:37:56;;;;;;;6.15;4.22;;;22.10;71.50;;;;;;3544349;40;20020;-68
2021/06/12 06:40:22;;;;;;;5.75;4.20;;;22.20;71.50;;;;;;3543851;40;20038;-68
2021/06/12 06:42:47;;;;;;;6.47;4.38;;;22.20;71.30;;;;;;3545936;40;20061;-68
2021/06/12 06:45:13;;;;;;;9.38;5.07;;;22.30;71.30;;;;;;3545316;40;20113;-69
2021/06/12 06:47:39;;;;;;;8.88;5.70;;;22.40;71.30;;;;;;3546124;40;20032;-68
2021/06/12 06:50:06;;;;;;;11.30;5.65;;;22.40;71.30;;;;;;3546316;40;20078;-68
2021/06/12 06:52:32;;;;;;;11.80;5.97;;;22.50;71.40;;;;;;3547030;40;20038;-68
2021/06/12 06:54:58;;;;;;;7.57;5.43;;;22.50;70.90;;;;;;3545967;40;20125;-68
2021/06/12 06:57:23;;;;;;;9.07;6.70;;;22.50;70.70;;;;;;3546371;40;20034;-67
2021/06/12 06:59:49;;;;;;;7.45;5.40;;;22.50;70.20;;;;;;3545819;40;20050;-70
2021/06/12 07:02:15;;;;;;;7.63;5.50;;;22.50;71.00;;;;;;3545905;40;20042;-73
2021/06/12 07:04:41;;;;;;;7.93;5.53;;;22.50;70.90;;;;;;3544616;40;20876;-68
2021/06/12 07:07:06;;;;;;;8.38;6.47;;;22.60;71.00;;;;;;3554595;40;20273;-71
2021/06/12 07:09:32;;;;;;;9.40;5.45;;;22.50;70.60;;;;;;3548245;40;20836;-69
2021/06/12 07:12:01;;;;;;;7.80;5.93;;;22.50;70.50;;;;;;3545487;40;20030;-67
2021/06/12 07:14:27;;;;;;;9.43;6.15;;;22.50;70.40;;;;;;3546480;40;20643;-68
2021/06/12 07:16:53;;;;;;;13.15;7.95;;;22.60;70.20;;;;;;3545571;40;20606;-68
2021/06/12 07:19:20;;;;;;;8.82;6.60;;;22.70;70.00;;;;;;3551035;40;20116;-68
2021/06/12 07:21:46;;;;;;;7.30;6.22;;;22.80;69.80;;;;;;3547705;40;20081;-69
2021/06/12 07:24:13;;;;;;;8.63;6.22;;;22.90;70.10;;;;;;3549419;40;20070;-68
2021/06/12 07:26:39;;;;;;;9.25;6.80;;;23.00;69.60;;;;;;3549967;40;20065;-69
2021/06/12 07:29:05;;;;;;;7.53;6.68;;;23.10;69.30;;;;;;3540281;40;20050;-68
2021/06/12 07:31:30;;;;;;;11.73;6.32;;;23.10;68.80;;;;;;3539606;40;20037;-68
2021/06/12 07:33:56;;;;;;;11.18;7.60;;;23.10;68.80;;;;;;3548589;40;20030;-68
2021/06/12 07:36:22;;;;;;;8.70;7.30;;;23.10;69.00;;;;;;3548177;40;20026;-68
2021/06/12 07:38:48;;;;;;;10.70;7.88;;;23.00;69.30;;;;;;3547626;40;20396;-69
2021/06/12 07:41:14;;;;;;;10.90;7.85;;;23.00;69.60;;;;;;3548328;40;20823;-68
2021/06/12 07:43:41;;;;;;;11.07;7.47;;;23.10;69.60;;;;;;3549023;40;20042;-67
2021/06/12 07:46:06;;;;;;;9.98;7.40;;;23.10;69.50;;;;;;3537907;40;20033;-67
2021/06/12 07:48:32;;;;;;;8.63;6.28;;;23.20;69.60;;;;;;3545119;40;20034;-67
2021/06/12 07:50:58;;;;;;;9.27;7.35;;;23.20;69.90;;;;;;3545325;40;20139;-67
2021/06/12 07:53:23;;;;;;;12.75;8.70;;;23.30;69.20;;;;;;3548148;40;20034;-67
2021/06/12 07:55:49;;;;;;;10.50;7.63;;;23.30;69.00;;;;;;3546672;40;20042;-67
2021/06/12 07:58:15;;;;;;;9.38;7.28;;;23.30;69.00;;;;;;3546450;40;20316;-67
2021/06/12 08:00:40;;;;;;;11.60;8.02;;;23.30;69.20;;;;;;3545222;40;20019;-67
2021/06/12 08:03:06;;;;;;;10.80;7.60;;;23.20;69.20;;;;;;3546746;40;20038;-66
2021/06/12 08:05:32;;;;;;;11.55;8.75;;;23.20;69.30;;;;;;3544987;40;20058;-67
2021/06/12 08:07:58;;;;;;;12.48;8.90;;;23.20;69.10;;;;;;3554155;40;20053;-67
2021/06/12 08:10:25;;;;;;;14.32;9.40;;;23.20;69.60;;;;;;3545793;40;20034;-68
2021/06/12 08:12:51;;;;;;;13.50;9.95;;;23.20;69.20;;;;;;3543606;40;20404;-69
2021/06/12 08:15:17;;;;;;;15.57;10.55;;;23.20;68.80;;;;;;3544021;40;20030;-69
2021/06/12 08:17:46;;;;;;;18.33;12.00;;;23.20;68.90;;;;;;3543680;40;20026;-66
2021/06/12 08:20:12;;;;;;;15.57;10.00;;;23.30;69.00;;;;;;3542476;40;20030;-66
2021/06/12 08:22:38;;;;;;;16.05;11.10;;;23.30;68.70;;;;;;3545674;40;20889;-66
2021/06/12 08:25:05;;;;;;;14.30;10.82;;;23.30;68.40;;;;;;3555123;40;20038;-67
2021/06/12 08:27:31;;;;;;;13.40;10.52;;;23.40;68.70;;;;;;3543440;40;20397;-64
2021/06/12 08:29:56;;;;;;;14.80;10.60;;;23.40;68.30;;;;;;3542245;40;20129;-68
2021/06/12 08:32:22;;;;;;;13.13;10.45;;;23.60;68.00;;;;;;3541887;40;20082;-68
2021/06/12 08:34:48;;;;;;;12.82;8.88;;;23.60;67.40;;;;;;3540589;40;20403;-67
2021/06/12 08:37:13;;;;;;;13.13;9.93;;;23.60;67.90;;;;;;3542620;40;20703;-67
2021/06/12 08:39:39;;;;;;;12.60;9.25;;;23.60;68.00;;;;;;3539788;40;20051;-68
2021/06/12 08:42:05;;;;;;;11.25;8.75;;;23.70;68.10;;;;;;3545006;40;20030;-67
2021/06/12 08:44:34;;;;;;;14.02;9.85;;;23.70;67.50;;;;;;3542876;40;20419;-66
2021/06/12 08:47:00;;;;;;;16.23;10.88;;;23.70;66.70;;;;;;3549156;40;20033;-68
2021/06/12 08:49:26;;;;;;;11.02;8.68;;;23.70;66.10;;;;;;3548853;40;20169;-70
2021/06/12 08:51:52;;;;;;;11.30;8.20;;;23.70;66.70;;;;;;3543403;40;20124;-68
2021/06/12 08:54:20;;;;;;;11.20;7.50;;;23.70;66.80;;;;;;3542432;40;20033;-67
2021/06/12 08:56:46;;;;;;;12.02;9.05;;;23.70;66.70;;;;;;3541670;40;20113;-67
2021/06/12 08:59:13;;;;;;;10.10;8.23;;;23.90;66.10;;;;;;3543644;40;20401;-71
2021/06/12 09:01:40;;;;;;;10.20;8.18;;;24.00;65.70;;;;;;3547451;40;20034;-69
2021/06/12 09:04:06;;;;;;;10.00;7.88;;;24.00;65.60;;;;;;3546068;40;20528;-69
2021/06/12 09:06:31;;;;;;;8.50;7.15;;;24.10;65.80;;;;;;3545898;40;20034;-68
2021/06/12 09:08:58;;;;;;;9.70;7.95;;;24.00;66.10;;;;;;3544132;40;20044;-69
2021/06/12 09:11:25;;;;;;;11.48;8.73;;;23.80;66.40;;;;;;3546090;40;20026;-71
2021/06/12 09:13:58;;;;;;;10.23;7.45;;;23.70;66.40;;;;;;3553127;40;20130;-69
2021/06/12 09:16:38;;;;;;;8.63;7.55;;;23.60;67.70;;;;;;3545624;40;20022;-72
2021/06/12 09:19:05;;;;;;;10.50;8.05;;;23.40;69.60;;;;;;3543641;40;20034;-72
2021/06/12 09:21:34;;;;;;;11.10;7.90;;;23.30;70.90;;;;;;3544430;40;20669;-70
2021/06/12 09:24:01;;;;;;;11.27;6.93;;;23.10;72.30;;;;;;3543056;40;20027;-71
2021/06/12 09:26:48;;;;;;;9.23;7.50;;;23.00;71.80;;;;;;3551347;40;20644;-70
2021/06/12 09:30:34;;;;;;;7.22;6.10;;;22.70;72.70;;;;;;3591651;39;20434;-70
2021/06/12 09:33:00;;;;;;;8.80;6.70;;;22.80;74.00;;;;;;3585864;39;20077;-73
2021/06/12 09:35:38;;;;;;;9.15;6.22;;;22.70;73.80;;;;;;3579452;40;20062;-64
2021/06/12 09:38:28;;;;;;;7.40;5.22;;;22.80;73.10;;;;;;3578762;40;20407;-72
2021/06/12 09:40:54;;;;;;;7.07;5.40;;;22.80;72.10;;;;;;3577097;40;20199;-70
2021/06/12 09:43:31;;;;;;;5.82;5.15;;;22.90;71.60;;;;;;3577849;40;20029;-67
2021/06/12 09:45:59;;;;;;;4.93;4.07;;;22.80;71.40;;;;;;3582598;40;20403;-67
2021/06/12 09:48:25;;;;;;;6.53;5.22;;;22.90;71.40;;;;;;3586846;39;20043;-67
2021/06/12 09:51:14;;;;;;;6.50;4.50;;;22.90;70.70;;;;;;3585864;39;20036;-67
2021/06/12 09:53:51;;;;;;;4.22;3.83;;;22.80;69.40;;;;;;3586055;39;20064;-65
2021/06/12 09:56:17;;;;;;;5.85;3.53;;;22.80;70.60;;;;;;3585589;39;20578;-73
2021/06/12 09:58:43;;;;;;;5.57;3.78;;;22.80;70.00;;;;;;3584174;39;20033;-72
2021/06/12 10:01:12;;;;;;;5.05;3.63;;;22.80;69.40;;;;;;3581707;39;20044;-70
2021/06/12 10:03:38;;;;;;;4.53;3.88;;;22.80;70.40;;;;;;3578749;40;20025;-73
2021/06/12 10:06:28;;;;;;;6.28;3.60;;;22.90;69.60;;;;;;3583277;40;20036;-74
2021/06/12 10:08:54;;;;;;;5.88;4.80;;;22.90;68.40;;;;;;3582142;39;20307;-74
2021/06/12 10:11:24;;;;;;;7.10;4.72;;;23.00;67.70;;;;;;3580320;40;20096;-70
2021/06/12 10:13:51;;;;;;;6.85;4.43;;;23.10;68.30;;;;;;3583077;39;20025;-73
2021/06/12 10:16:17;;;;;;;4.43;3.60;;;23.20;67.30;;;;;;3582290;39;20037;-72
2021/06/12 10:18:45;;;;;;;4.53;3.88;;;23.30;66.40;;;;;;3581177;39;20048;-71
2021/06/12 10:21:13;;;;;;;3.70;3.40;;;23.40;66.00;;;;;;3581191;40;20032;-72
2021/06/12 10:23:40;;;;;;;4.97;3.97;;;23.60;66.30;;;;;;3582177;40;20608;-71
2021/06/12 10:26:07;;;;;;;4.78;3.72;;;23.80;65.00;;;;;;3582889;40;20734;-73
2021/06/12 10:28:33;;;;;;;3.88;3.55;;;24.00;64.20;;;;;;3581941;39;20452;-73
2021/06/12 10:31:05;;;;;;;5.07;3.50;;;24.20;62.60;;;;;;3583913;40;20028;-72
2021/06/12 10:33:33;;;;;;;5.35;3.58;;;24.40;62.50;;;;;;3578246;40;20044;-71
2021/06/12 10:36:16;;;;;;;4.15;3.20;;;24.50;61.80;;;;;;3578558;39;20426;-73
2021/06/12 10:38:42;;;;;;;3.15;2.85;;;24.70;60.30;;;;;;3581986;40;20048;-74
2021/06/12 10:41:19;;;;;;;3.70;2.90;;;25.00;59.70;;;;;;3579352;39;20137;-73
2021/06/12 10:43:45;;;;;;;3.88;2.67;;;25.30;59.10;;;;;;3579266;40;20056;-74
2021/06/12 10:46:14;;;;;;;3.47;2.72;;;25.50;58.90;;;;;;3578312;40;20028;-74
2021/06/12 10:48:55;;;;;;;5.05;2.80;;;25.80;57.30;;;;;;3581220;40;20028;-74
2021/06/12 10:51:27;;;;;;;6.03;2.90;;;25.80;56.50;;;;;;3570629;40;20045;-73
2021/06/12 10:54:08;;;;;;;4.50;2.90;;;25.90;56.20;;;;;;3572728;40;20053;-74
2021/06/12 10:56:35;;;;;;;4.30;2.90;;;25.80;55.90;;;;;;3580109;40;20044;-73
2021/06/12 10:59:01;;;;;;;3.22;2.60;;;25.80;56.30;;;;;;3576076;40;20036;-72
2021/06/12 13:45:48;;;;;;;6.00;4.90;;;19.50;89.10;;;;;;3620068;39;20347;-68
2021/06/12 13:48:15;;;;;;;5.43;4.93;;;19.60;87.00;;;;;;3623475;39;20026;-70
2021/06/12 13:50:41;;;;;;;6.10;4.97;;;19.90;84.20;;;;;;3624287;39;20072;-67
2021/06/12 13:53:10;;;;;;;6.93;5.15;;;20.30;83.80;;;;;;3624975;39;20030;-69
2021/06/12 13:55:35;;;;;;;7.72;5.22;;;20.70;81.70;;;;;;3624853;39;20679;-68
2021/06/12 13:58:01;;;;;;;4.72;4.20;;;21.00;79.90;;;;;;3625488;39;20026;-69
2021/06/12 14:00:27;;;;;;;9.43;4.88;;;21.30;78.70;;;;;;3625136;39;20034;-69
2021/06/12 14:02:52;;;;;;;7.03;5.15;;;21.50;76.50;;;;;;3625680;39;20023;-70
2021/06/12 14:05:18;;;;;;;5.22;4.72;;;21.80;75.80;;;;;;3626281;39;20384;-69
2021/06/12 14:07:44;;;;;;;6.80;4.85;;;22.00;75.90;;;;;;3623482;39;20037;-70
2021/06/12 14:10:11;;;;;;;7.05;4.80;;;22.20;75.10;;;;;;3619216;39;20426;-68
2021/06/12 14:12:38;;;;;;;6.85;4.57;;;22.30;74.70;;;;;;3620529;39;20031;-75
2021/06/12 14:15:08;;;;;;;7.95;4.80;;;22.30;74.30;;;;;;3618834;39;20109;-73
2021/06/12 14:17:34;;;;;;;6.18;4.32;;;22.40;73.20;;;;;;3616839;39;20039;-72
2021/06/12 14:20:03;;;;;;;4.68;4.15;;;22.40;73.50;;;;;;3618150;39;20059;-69
2021/06/12 14:22:29;;;;;;;7.80;5.35;;;22.40;74.10;;;;;;3618678;39;20023;-69
2021/06/12 14:24:55;;;;;;;5.60;3.97;;;22.50;74.90;;;;;;3622407;39;20025;-70
2021/06/12 14:27:21;;;;;;;8.80;3.55;;;22.40;70.20;;;;;;3621152;39;20176;-72
2021/06/12 14:29:51;;;;;;;4.53;3.22;;;22.40;66.90;;;;;;3623630;39;20054;-73
2021/06/12 14:32:17;;;;;;;5.75;2.63;;;22.30;67.70;;;;;;3621526;39;20025;-69
2021/06/12 14:34:43;;;;;;;7.95;2.40;;;22.20;64.00;;;;;;3618113;39;20029;-71
2021/06/12 14:37:08;;;;;;;5.82;3.13;;;22.10;65.10;;;;;;3621304;39;20020;-68
2021/06/12 14:39:34;;;;;;;7.20;2.25;;;22.10;67.80;;;;;;3625232;39;20023;-68
2021/06/12 14:42:00;;;;;;;11.85;2.45;;;22.10;60.80;;;;;;3620974;39;20285;-70
2021/06/12 14:44:26;;;;;;;8.20;2.30;;;22.10;61.20;;;;;;3621723;39;20157;-69
2021/06/12 14:46:52;;;;;;;8.55;2.00;;;22.20;62.70;;;;;;3622029;39;20400;-68
2021/06/12 14:49:18;;;;;;;6.10;2.17;;;22.30;57.40;;;;;;3622391;39;20053;-71
2021/06/12 14:51:44;;;;;;;3.47;2.10;;;22.40;57.30;;;;;;3623049;39;20505;-70
2021/06/12 14:54:10;;;;;;;9.43;2.22;;;22.40;56.20;;;;;;3622950;39;20023;-70
2021/06/12 14:56:37;;;;;;;2.65;1.30;;;22.30;55.70;;;;;;3616994;39;20039;-67
2021/06/12 14:59:03;;;;;;;9.70;1.92;;;22.40;55.10;;;;;;3615470;39;20047;-71
2021/06/12 15:01:29;;;;;;;7.28;2.45;;;22.40;55.50;;;;;;3612822;39;20026;-71
2021/06/12 15:03:54;;;;;;;4.07;1.52;;;22.50;55.90;;;;;;3613714;39;20122;-70
2021/06/12 15:06:20;;;;;;;7.18;2.28;;;22.50;51.60;;;;;;3616240;39;20386;-70
2021/06/12 15:08:46;;;;;;;4.32;2.00;;;22.40;50.90;;;;;;3616087;39;20027;-71
2021/06/12 15:11:12;;;;;;;6.30;1.65;;;22.40;51.60;;;;;;3613928;39;20285;-72
2021/06/12 15:13:38;;;;;;;9.30;1.80;;;22.30;53.00;;;;;;3613205;39;20116;-74
2021/06/12 15:16:04;;;;;;;8.95;3.05;;;22.30;52.20;;;;;;3610044;39;20032;-72
2021/06/12 15:18:30;;;;;;;6.00;1.65;;;22.40;50.30;;;;;;3612555;39;20024;-71
2021/06/12 15:20:55;;;;;;;10.60;1.70;;;22.40;48.50;;;;;;3612579;39;20024;-72
2021/06/12 15:23:21;;;;;;;4.57;1.13;;;22.60;48.20;;;;;;3619859;39;20034;-75
2021/06/12 15:25:47;;;;;;;11.93;1.35;;;22.60;47.50;;;;;;3618541;39;20030;-74
2021/06/12 15:28:14;;;;;;;4.50;1.17;;;22.60;46.90;;;;;;3609776;39;20027;-72
2021/06/12 15:30:41;;;;;;;8.40;1.30;;;22.60;47.00;;;;;;3614685;39;20047;-72
2021/06/12 15:33:07;;;;;;;4.45;1.15;;;22.70;45.90;;;;;;3611541;39;20038;-73